Sun River — WDE6902 — position and weather

sailwx.info

Track history (hours):
 
Tides and Currents Weather Stations Pressure Air Temp Water Temp Dewpoint Dewpoint Depression Visibility Wind Speed Wind Dir Waves Ship Positions

Sun River

Owner: Sun River, Broussard, LA. More information available from US FCC via Universal Licensing System and Coast Guard Vessel Documentation Center.

Last reported at 2018-Jan-07 00:30 UTC. Time now 2018-Feb-20 13:38 UTC.
Position N 29°32' W 090°46'.
Warning: this ship's position is 44 days out of date.

Length 70 m; draft 3.6 m.

Type: Diving. MMSI: 338366000.

Date/timePositionNaut miles runAvg speedWind from/ knotsBaromVisibWave heightAir tempDewpointWater temp
2018-Jan-07 00:30N 29°32' W 090°46'3 6.2
2018-Jan-07 00:00N 29°34' W 090°43'2 3.5
2018-Jan-06 23:30N 29°33' W 090°42'4 7.3
2018-Jan-06 23:00N 29°29' W 090°43'4 7.3
2018-Jan-06 22:30N 29°25' W 090°43'  
2018-Jan-04 12:43N 29°25' W 090°44'2 7.2
2018-Jan-04 12:30N 29°26' W 090°43'4 7.3
2018-Jan-04 12:00N 29°30' W 090°43'3 6.6
2018-Jan-04 11:30N 29°33' W 090°42'2 3.5
2018-Jan-04 11:00N 29°34' W 090°44'3 6.4
2018-Jan-04 10:30N 29°32' W 090°47'4 8.8
2018-Jan-04 10:00N 29°32' W 090°52'5 6.5
2018-Jan-04 09:18N 29°34' W 090°57'  
Track history (hours):
 
Tides and Currents Weather Stations Pressure Air Temp Water Temp Dewpoint Dewpoint Depression Visibility Wind Speed Wind Dir Waves Ship Positions

Sun River

Owner: Sun River, Broussard, LA. More information available from US FCC via Universal Licensing System and Coast Guard Vessel Documentation Center.

Last reported at 2018-Jan-07 00:30 UTC. Time now 2018-Feb-20 13:38 UTC.
Position N 29°32' W 090°46'.
Warning: this ship's position is 44 days out of date.

Length 70 m; draft 3.6 m.

Type: Diving. MMSI: 338366000.

Date/timePositionNaut miles runAvg speedWind from/ knotsBaromVisibWave heightAir tempDewpointWater temp
2018-Jan-07 00:30N 29°32' W 090°46'3 6.2
2018-Jan-07 00:00N 29°34' W 090°43'2 3.5
2018-Jan-06 23:30N 29°33' W 090°42'4 7.3
2018-Jan-06 23:00N 29°29' W 090°43'4 7.3
2018-Jan-06 22:30N 29°25' W 090°43'  
2018-Jan-04 12:43N 29°25' W 090°44'2 7.2
2018-Jan-04 12:30N 29°26' W 090°43'4 7.3
2018-Jan-04 12:00N 29°30' W 090°43'3 6.6
2018-Jan-04 11:30N 29°33' W 090°42'2 3.5
2018-Jan-04 11:00N 29°34' W 090°44'3 6.4
2018-Jan-04 10:30N 29°32' W 090°47'4 8.8
2018-Jan-04 10:00N 29°32' W 090°52'5 6.5
2018-Jan-04 09:18N 29°34' W 090°57'  

Dump ship's entire track history